Terminal Aerodrome Forecast
Issued by NWS

Home | Current Version | Previous Version | Text Only | Print | Product List | Glossary On
Versions: 1 2 3 4 5 6 7 8 9 10 11 12 13 14 15 16 17 18 19
000
FTAK31 PAJN 200531
TAFAKT
TAF
PAKT 200531Z 2006/2106 35008KT P6SM VCSH SCT025 OVC050
      TEMPO 2008/2012 6SM -SHRA BKN030
     FM201200 00000KT P6SM VCFG FEW002 BKN035
     FM201800 34006KT P6SM BKN100
     FM210000 32004KT P6SM SCT100
      AMD LTD TO CLD VIS AND WIND 2006/2015=

USA.gov is the U.S. government's official web portal to all federal, state and local government web resources and services.